Time;durP1;ratioP1;P1;durP2;ratioP2;P2;SDS_P1;SDS_P2;PMS_P1;PMS_P2;Temp;Humidity;BMP_temperature;BMP_pressure;BME280_temperature;BME280_humidity;BME280_pressure;Samples;Min_cycle;Max_cycle;Signal;HPM_P1;HPM_P2
2023/09/04 04:06:38;;;;;;;0.70;0.52;;;22.80;66.20;;;;;;6104589;23;20100;-71
2023/09/04 04:09:06;;;;;;;0.50;0.50;;;;;;;;;;6069087;23;20010;-71
2023/09/04 04:11:33;;;;;;;0.70;0.50;;;;;;;;;;6104361;23;20006;-71
2023/09/04 04:13:59;;;;;;;0.60;0.60;;;;;;;;;;6104640;23;20002;-72
2023/09/04 04:16:25;;;;;;;0.47;0.47;;;;;;;;;;6104428;23;19999;-71
2023/09/04 04:18:51;;;;;;;0.55;0.55;;;;;;;;;;6104616;23;20006;-76
2023/09/04 04:21:17;;;;;;;0.60;0.60;;;;;;;;;;6105013;23;19999;-76
2023/09/04 04:23:43;;;;;;;0.68;0.60;;;;;;;;;;6104654;23;20002;-76
2023/09/04 04:26:09;;;;;;;0.60;0.60;;;;;;;;;;6105222;23;20014;-76
2023/09/04 04:28:36;;;;;;;0.50;0.45;;;;;;;;;;6106383;23;20573;-76
2023/09/04 04:31:02;;;;;;;0.50;0.50;;;;;;;;;;6106365;23;19998;-76
2023/09/04 04:33:28;;;;;;;0.82;0.52;;;;;;;;;;6106323;23;19999;-76
2023/09/04 04:35:55;;;;;;;0.63;0.63;;;;;;;;;;6097297;23;20006;-76
2023/09/04 04:38:21;;;;;;;0.50;0.40;;;;;;;;;;6080810;23;20363;-77
2023/09/04 04:40:47;;;;;;;0.73;0.60;;;;;;;;;;6096498;23;20462;-76
2023/09/04 04:43:14;;;;;;;0.50;0.50;;;;;;;;;;6096423;23;20006;-76
2023/09/04 04:45:40;;;;;;;0.70;0.70;;;;;;;;;;6096738;23;20017;-76
2023/09/04 04:48:07;;;;;;;0.68;0.60;;;;;;;;;;6096532;23;19999;-76
2023/09/04 04:50:33;;;;;;;0.50;0.50;;;;;;;;;;6105743;23;20085;-76
2023/09/04 04:52:59;;;;;;;0.50;0.50;;;;;;;;;;6106153;23;19998;-76
2023/09/04 04:55:25;;;;;;;0.60;0.43;;;;;;;;;;6096659;23;20009;-76
2023/09/04 04:57:53;;;;;;;1.00;0.63;;;;;;;;;;6096629;23;20307;-76
2023/09/04 05:00:19;;;;;;;0.70;0.70;;;;;;;;;;6096823;23;20457;-77
2023/09/04 05:02:46;;;;;;;0.55;0.40;;;;;;;;;;6096109;23;20456;-76
2023/09/04 05:05:12;;;;;;;0.45;0.40;;;;;;;;;;6096925;23;20006;-76
2023/09/04 05:07:41;;;;;;;0.50;0.50;;;;;;;;;;6106068;23;20005;-76
2023/09/04 05:10:08;;;;;;;0.95;0.80;;;;;;;;;;6096476;23;20077;-76
2023/09/04 05:12:34;;;;;;;0.70;0.50;;;;;;;;;;6096292;23;20441;-75
2023/09/04 05:15:01;;;;;;;0.50;0.50;;;;;;;;;;6096531;23;20002;-71
2023/09/04 05:17:27;;;;;;;0.50;0.50;;;;;;;;;;6096170;23;20011;-71
2023/09/04 05:19:54;;;;;;;0.40;0.40;;;;;;;;;;6095865;23;20033;-72
2023/09/04 05:22:20;;;;;;;0.50;0.50;;;;;;;;;;6096576;23;20002;-71
2023/09/04 05:24:47;;;;;;;0.40;0.40;;;;;;;;;;6096220;23;19998;-74
2023/09/04 05:27:13;;;;;;;1.95;0.70;;;;;;;;;;6096330;23;20014;-75
2023/09/04 05:29:40;;;;;;;0.60;0.60;;;;;;;;;;6096411;23;20038;-76
2023/09/04 05:32:06;;;;;;;0.70;0.57;;;;;;;;;;6096655;23;20002;-72
2023/09/04 05:34:34;;;;;;;0.70;0.70;;;;;;;;;;6096375;23;20378;-71
2023/09/04 05:37:00;;;;;;;1.15;0.70;;;;;;;;;;6096301;23;20011;-73
2023/09/04 05:39:27;;;;;;;0.70;0.70;;;;;;;;;;6095925;23;20017;-73
2023/09/04 05:41:53;;;;;;;1.13;0.90;;;;;;;;;;6096213;23;20025;-72
2023/09/04 05:44:20;;;;;;;0.95;0.82;;;;;;;;;;6095952;23;20010;-77
2023/09/04 05:46:46;;;;;;;1.80;0.60;;;;;;;;;;6096267;23;20017;-77
2023/09/04 05:49:13;;;;;;;1.20;1.10;;;;;;;;;;6095919;23;20006;-76
2023/09/04 05:51:39;;;;;;;1.75;0.93;;;;;;;;;;6096370;23;20006;-76
2023/09/04 05:54:06;;;;;;;1.40;1.00;;;;;;;;;;6096005;23;20077;-76
2023/09/04 05:56:32;;;;;;;1.15;1.05;;;;;;;;;;6095646;23;19999;-76
2023/09/04 05:59:00;;;;;;;0.80;0.80;;;;;;;;;;6096044;23;20054;-75
2023/09/04 06:01:27;;;;;;;1.20;1.10;;;;;;;;;;6105717;23;20326;-71
2023/09/04 06:03:54;;;;;;;1.92;1.20;;;;;;;;;;6097908;23;20070;-70
2023/09/04 06:06:20;;;;;;;1.50;1.27;;;;;;;;;;6096012;23;20021;-71
2023/09/04 06:08:47;;;;;;;1.33;1.13;;;;;;;;;;6095380;23;20378;-71
2023/09/04 06:11:13;;;;;;;1.42;1.10;;;;;;;;;;6095585;23;20006;-76
2023/09/04 06:13:40;;;;;;;2.72;1.40;;;;;;;;;;6096015;23;20501;-78
2023/09/04 06:16:06;;;;;;;3.58;1.77;;;;;;;;;;6105741;23;20017;-77
2023/09/04 06:18:32;;;;;;;2.72;1.20;;;;;;;;;;6095499;23;20513;-77
2023/09/04 06:20:59;;;;;;;2.38;1.60;;;;;;;;;;6095354;23;19999;-75
2023/09/04 06:23:25;;;;;;;2.95;1.40;;;;;;;;;;6095657;23;20066;-74
2023/09/04 06:25:52;;;;;;;2.38;1.60;;;;;;;;;;6095348;23;20014;-76
2023/09/04 06:28:18;;;;;;;2.60;1.38;;;;;;;;;;6095496;23;20025;-76
2023/09/04 06:30:45;;;;;;;1.75;1.30;;;;;;;;;;6105474;23;20286;-70
2023/09/04 06:33:11;;;;;;;1.52;1.30;;;;;;;;;;6105162;23;20379;-71
2023/09/04 06:35:37;;;;;;;2.45;1.50;;;;;;;;;;6104956;23;20501;-70
2023/09/04 06:38:03;;;;;;;1.95;1.20;;;;;;;;;;6105092;23;19998;-71
2023/09/04 06:40:29;;;;;;;2.83;1.42;;;;;;;;;;6104948;23;20479;-71
2023/09/04 06:42:55;;;;;;;2.00;1.20;;;;;;;;;;6104916;23;20026;-72
2023/09/04 06:45:21;;;;;;;1.83;1.50;;;;;;;;;;6104743;23;20016;-71
2023/09/04 06:47:50;;;;;;;1.85;1.20;;;22.10;72.60;;;;;;6104532;23;20001;-73
2023/09/04 06:50:16;;;;;;;1.77;1.40;;;;;;;;;;6104805;23;20002;-72
2023/09/04 06:52:42;;;;;;;1.60;1.38;;;;;;;;;;6104830;23;19994;-72
2023/09/04 06:55:09;;;;;;;2.45;1.55;;;;;;;;;;6104636;23;20005;-71
2023/09/04 06:57:35;;;;;;;2.58;1.73;;;;;;;;;;6105273;23;20002;-71
2023/09/04 07:00:10;;;;;;;2.55;1.70;;;22.20;73.40;;;;;;6104719;23;19994;-72
2023/09/04 07:02:37;;;;;;;1.38;1.27;;;;;;;;;;6104471;23;20061;-72
2023/09/04 07:05:04;;;;;;;2.35;1.52;;;22.20;73.00;;;;;;6104486;23;20022;-73
2023/09/04 07:07:31;;;;;;;2.65;1.50;;;;;;;;;;6104609;23;20026;-71
2023/09/04 07:09:57;;;;;;;2.13;1.80;;;;;;;;;;6104017;23;20334;-76
2023/09/04 07:12:23;;;;;;;1.85;1.50;;;;;;;;;;6095314;23;20509;-75
2023/09/04 07:14:50;;;;;;;1.92;1.63;;;;;;;;;;6095088;23;20422;-76
2023/09/04 07:17:16;;;;;;;2.78;1.70;;;;;;;;;;6094739;23;20010;-76
2023/09/04 07:19:43;;;;;;;2.00;1.80;;;;;;;;;;6095084;23;20054;-75
2023/09/04 07:22:10;;;;;;;2.05;1.75;;;;;;;;;;6094586;23;20006;-74
2023/09/04 07:24:37;;;;;;;3.42;1.75;;;;;;;;;;6094468;23;20005;-74
2023/09/04 07:27:03;;;;;;;2.42;1.60;;;;;;;;;;6095035;23;20014;-74
2023/09/04 07:29:30;;;;;;;1.90;1.58;;;22.20;70.80;;;;;;6095025;23;20049;-74
2023/09/04 07:31:57;;;;;;;1.85;1.60;;;;;;;;;;6095018;23;20315;-74
2023/09/04 07:34:24;;;;;;;3.05;1.80;;;;;;;;;;6094610;23;19998;-74
2023/09/04 07:36:52;;;;;;;1.83;1.50;;;;;;;;;;6094735;23;20025;-71
2023/09/04 07:39:18;;;;;;;1.55;1.45;;;;;;;;;;6094902;23;19998;-71
2023/09/04 07:41:45;;;;;;;2.05;1.55;;;;;;;;;;6094983;23;20006;-71
2023/09/04 07:44:11;;;;;;;1.80;1.70;;;;;;;;;;6094667;23;20077;-71
2023/09/04 07:46:37;;;;;;;1.70;1.58;;;;;;;;;;6104413;23;20007;-72
2023/09/04 07:49:03;;;;;;;1.67;1.58;;;;;;;;;;6104684;23;20443;-70
2023/09/04 07:51:29;;;;;;;1.92;1.73;;;;;;;;;;6104804;23;20006;-71
2023/09/04 07:53:55;;;;;;;1.98;1.70;;;;;;;;;;6105243;23;20003;-71
2023/09/04 07:56:22;;;;;;;1.42;1.30;;;;;;;;;;6104819;23;20037;-72
2023/09/04 07:58:48;;;;;;;4.03;1.45;;;;;;;;;;6104629;23;20025;-72
2023/09/04 08:01:14;;;;;;;2.05;1.65;;;;;;;;;;6095836;23;21589;-71
2023/09/04 08:03:43;;;;;;;1.50;1.40;;;22.40;67.70;;;;;;6096592;23;20350;-71
2023/09/04 08:06:09;;;;;;;1.75;1.33;;;;;;;;;;6106605;23;20061;-71
2023/09/04 08:08:35;;;;;;;1.50;1.40;;;;;;;;;;6106350;23;20067;-72
2023/09/04 08:11:01;;;;;;;1.73;1.55;;;;;;;;;;6106316;23;20002;-72
2023/09/04 08:13:27;;;;;;;3.65;1.60;;;;;;;;;;6106146;23;20002;-71
2023/09/04 08:15:53;;;;;;;1.50;1.33;;;;;;;;;;6106248;23;20014;-72
2023/09/04 08:18:19;;;;;;;1.70;1.60;;;;;;;;;;6109472;23;19995;-73
2023/09/04 08:20:46;;;;;;;2.05;1.85;;;;;;;;;;6106232;23;20005;-71
2023/09/04 08:23:12;;;;;;;3.65;1.70;;;;;;;;;;6097294;23;20082;-72
2023/09/04 08:25:38;;;;;;;2.03;1.73;;;;;;;;;;6105967;23;20033;-71
2023/09/04 08:28:05;;;;;;;1.95;1.75;;;;;;;;;;6106163;23;20022;-71
2023/09/04 08:30:31;;;;;;;2.15;1.30;;;;;;;;;;6106100;23;20052;-72
2023/09/04 08:32:57;;;;;;;2.25;1.67;;;;;;;;;;6106064;23;19998;-71
2023/09/04 08:35:28;;;;;;;2.63;1.90;;;;;;;;;;6106066;23;20009;-71
2023/09/04 08:37:55;;;;;;;1.98;1.40;;;;;;;;;;6106043;23;20009;-72
2023/09/04 08:40:21;;;;;;;1.73;1.63;;;;;;;;;;6105985;23;20055;-71
2023/09/04 08:42:49;;;;;;;2.00;1.80;;;22.60;75.10;;;;;;6105667;23;20438;-71
2023/09/04 08:45:17;;;;;;;2.00;1.90;;;;;;;;;;6096231;23;20003;-72
2023/09/04 08:47:44;;;;;;;1.63;1.50;;;22.70;72.90;;;;;;6095893;23;20081;-72
2023/09/04 08:50:11;;;;;;;3.42;2.15;;;22.70;72.80;;;;;;6096247;23;20010;-73
2023/09/04 08:52:38;;;;;;;3.10;1.92;;;;;;;;;;6096619;23;20438;-73
2023/09/04 08:55:05;;;;;;;5.18;2.33;;;22.70;75.20;;;;;;6096078;23;20047;-72
2023/09/04 08:57:35;;;;;;;1.90;1.80;;;;;;;;;;6095810;23;20035;-72
2023/09/04 09:00:02;;;;;;;3.42;1.88;;;22.80;74.90;;;;;;6096448;23;20021;-72
2023/09/04 09:02:29;;;;;;;2.55;1.98;;;22.90;75.50;;;;;;6095827;23;20458;-74
2023/09/04 09:04:57;;;;;;;1.83;1.70;;;22.50;75.40;;;;;;6095892;23;20054;-74
2023/09/04 09:07:27;;;;;;;3.47;2.00;;;22.90;75.80;;;;;;6096319;23;20145;-74
2023/09/04 09:09:53;;;;;;;1.90;1.80;;;;;;;;;;6096260;23;19998;-74
2023/09/04 09:12:20;;;;;;;2.20;1.95;;;;;;;;;;6095675;23;19998;-74
2023/09/04 09:14:46;;;;;;;2.97;2.20;;;;;;;;;;6095917;23;20030;-74
2023/09/04 09:17:14;;;;;;;2.45;2.17;;;;;;;;;;6095605;23;20418;-73
2023/09/04 09:19:41;;;;;;;2.33;1.80;;;23.20;74.80;;;;;;6096461;23;20002;-73
2023/09/04 09:22:15;;;;;;;4.43;1.80;;;23.20;74.90;;;;;;6095904;23;19995;-74
2023/09/04 09:24:52;;;;;;;3.00;2.17;;;23.20;69.60;;;;;;6095712;23;20005;-75
2023/09/04 09:27:19;;;;;;;2.47;2.28;;;23.30;75.30;;;;;;6095939;23;20007;-73
2023/09/04 09:29:49;;;;;;;2.88;2.00;;;23.30;75.30;;;;;;6095539;23;19999;-72
2023/09/04 09:32:17;;;;;;;3.78;2.10;;;23.40;75.90;;;;;;6095721;23;20005;-74
2023/09/04 09:34:51;;;;;;;2.53;2.30;;;23.40;75.20;;;;;;6095949;23;20349;-73
2023/09/04 09:37:19;;;;;;;3.13;2.22;;;23.50;75.40;;;;;;6095639;23;19995;-73
2023/09/04 09:39:46;;;;;;;4.18;2.38;;;;;;;;;;6095464;23;19998;-72
2023/09/04 09:42:12;;;;;;;2.42;1.90;;;;;;;;;;6096065;23;20005;-72
2023/09/04 09:44:39;;;;;;;2.85;2.13;;;;;;;;;;6096114;23;20337;-73
2023/09/04 09:47:12;;;;;;;3.15;2.08;;;23.70;69.70;;;;;;6095844;23;20010;-73
2023/09/04 09:49:40;;;;;;;2.03;1.90;;;23.70;75.40;;;;;;6096002;23;19999;-73
2023/09/04 09:52:07;;;;;;;3.22;2.08;;;23.90;75.80;;;;;;6095917;23;20009;-71
2023/09/04 09:54:39;;;;;;;3.22;2.42;;;23.90;75.90;;;;;;6105345;23;20006;-72
2023/09/04 09:57:08;;;;;;;3.22;2.00;;;23.90;75.40;;;;;;6105404;23;19998;-72
2023/09/04 09:59:36;;;;;;;3.10;2.30;;;23.90;75.20;;;;;;6095867;23;20009;-72
2023/09/04 10:02:04;;;;;;;4.35;2.38;;;24.00;75.80;;;;;;6095175;23;20006;-73
2023/09/04 10:04:31;;;;;;;2.05;1.95;;;24.00;75.50;;;;;;6095697;23;20077;-72
2023/09/04 10:07:00;;;;;;;3.08;2.55;;;24.40;75.70;;;;;;6095595;23;20014;-72
2023/09/04 10:09:27;;;;;;;2.67;2.03;;;24.20;75.70;;;;;;6095316;23;20006;-74
2023/09/04 10:12:09;;;;;;;3.75;2.38;;;24.20;70.00;;;;;;6105144;23;20006;-71
2023/09/04 10:14:39;;;;;;;2.55;2.00;;;24.30;75.70;;;;;;6105126;23;19995;-73
2023/09/04 10:17:08;;;;;;;2.80;2.15;;;;;;;;;;6095614;23;20002;-72
2023/09/04 10:19:38;;;;;;;3.30;2.13;;;24.40;75.70;;;;;;6095618;23;19999;-72
2023/09/04 10:22:08;;;;;;;2.58;2.22;;;24.50;75.30;;;;;;6095199;23;20014;-73
2023/09/04 10:24:49;;;;;;;3.22;1.92;;;24.60;75.10;;;;;;6094957;23;20002;-74
2023/09/04 10:27:17;;;;;;;2.47;2.28;;;24.60;75.40;;;;;;6105014;23;20042;-74
2023/09/04 10:29:54;;;;;;;2.50;2.30;;;24.80;69.50;;;;;;6105049;23;20002;-73
2023/09/04 10:32:20;;;;;;;2.53;2.00;;;;;;;;;;6095656;23;20074;-72
2023/09/04 10:34:46;;;;;;;2.25;2.05;;;;;;;;;;6104928;23;20395;-73
2023/09/04 10:37:13;;;;;;;2.25;2.05;;;;;;;;;;6069674;23;20013;-73
2023/09/04 10:39:40;;;;;;;2.72;1.90;;;25.10;71.80;;;;;;6095421;23;20026;-74
2023/09/04 10:42:06;;;;;;;3.20;2.08;;;25.10;73.00;;;;;;6104855;23;20529;-74
2023/09/04 10:44:49;;;;;;;3.80;2.10;;;25.20;69.10;;;;;;6104948;23;19998;-73
2023/09/04 10:47:16;;;;;;;2.28;2.00;;;25.50;71.90;;;;;;6095331;23;20337;-71
2023/09/04 10:49:43;;;;;;;2.22;2.03;;;25.40;74.80;;;;;;6104850;23;20333;-72
2023/09/04 10:52:09;;;;;;;3.50;2.85;;;25.50;71.20;;;;;;6069393;23;20427;-73
2023/09/04 10:54:35;;;;;;;5.13;2.30;;;;;;;;;;6104692;23;20004;-73
2023/09/04 10:57:07;;;;;;;2.67;2.00;;;25.60;73.80;;;;;;6104850;23;20065;-73
2023/09/04 10:59:53;;;;;;;3.78;2.05;;;25.70;73.60;;;;;;6104923;23;20003;-73
2023/09/04 11:02:30;;;;;;;2.55;2.00;;;25.70;67.60;;;;;;6076271;23;20014;-74
2023/09/04 11:04:58;;;;;;;1.92;1.80;;;25.80;73.10;;;;;;6095579;23;20005;-72
2023/09/04 11:07:26;;;;;;;3.85;2.30;;;25.90;73.10;;;;;;6095095;23;20006;-72
2023/09/04 11:09:58;;;;;;;3.13;2.30;;;26.10;73.00;;;;;;6095389;23;20003;-72
2023/09/04 11:12:26;;;;;;;4.28;2.50;;;26.00;72.80;;;;;;6095515;23;20066;-72
2023/09/04 11:14:54;;;;;;;2.17;1.98;;;26.10;72.90;;;;;;6094771;23;20460;-71
2023/09/04 11:17:33;;;;;;;2.22;2.03;;;26.10;66.80;;;;;;6104894;23;20337;-71
2023/09/04 11:19:59;;;;;;;2.30;2.00;;;;;;;;;;6104927;23;20406;-73
2023/09/04 11:22:25;;;;;;;2.33;2.05;;;;;;;;;;6104887;23;19995;-73
2023/09/04 11:24:54;;;;;;;2.47;2.20;;;;;;;;;;6095117;23;19999;-74
2023/09/04 11:27:21;;;;;;;3.38;2.40;;;;;;;;;;6094761;23;20046;-73
2023/09/04 11:29:48;;;;;;;2.05;1.95;;;;;;;;;;6095244;23;19999;-72
2023/09/04 11:32:15;;;;;;;2.20;2.00;;;26.40;71.00;;;;;;6095023;23;20002;-73
2023/09/04 11:34:50;;;;;;;3.95;1.98;;;26.40;66.90;;;;;;6095695;23;20100;-73
2023/09/04 11:37:16;;;;;;;2.33;1.95;;;;;;;;;;6097005;23;20501;-74
2023/09/04 11:40:04;;;;;;;3.00;2.05;;;26.40;66.60;;;;;;6097914;23;20025;-76
2023/09/04 11:42:46;;;;;;;2.05;1.92;;;;;;;;;;6072926;23;20003;-74
2023/09/04 11:45:12;;;;;;;1.63;1.52;;;;;;;;;;6097129;23;20337;-74
2023/09/04 11:47:39;;;;;;;3.08;2.40;;;;;;;;;;6097208;23;20010;-73
2023/09/04 11:50:12;;;;;;;2.53;2.10;;;26.70;69.60;;;;;;6097351;23;20003;-74
2023/09/04 11:52:39;;;;;;;2.25;2.08;;;;;;;;;;6097399;23;20009;-76
2023/09/04 11:55:06;;;;;;;2.53;1.90;;;;;;;;;;6096705;23;20026;-74
2023/09/04 11:57:33;;;;;;;1.70;1.60;;;;;;;;;;6096676;23;20458;-74
2023/09/04 11:59:59;;;;;;;3.53;2.05;;;;;;;;;;6071496;23;20320;-74
2023/09/04 12:02:26;;;;;;;4.85;2.13;;;;;;;;;;6079533;23;20437;-74
2023/09/04 12:04:56;;;;;;;2.65;1.90;;;;;;;;;;6095192;23;20006;-74
2023/09/04 12:07:22;;;;;;;2.10;1.90;;;;;;;;;;6095513;23;20046;-74
2023/09/04 12:09:49;;;;;;;2.47;2.28;;;27.20;71.80;;;;;;6095547;23;20362;-74
2023/09/04 12:12:16;;;;;;;4.43;1.95;;;;;;;;;;6095028;23;20017;-74
2023/09/04 12:14:44;;;;;;;2.25;2.05;;;27.30;71.40;;;;;;6095511;23;20322;-74
2023/09/04 12:17:11;;;;;;;2.20;1.88;;;;;;;;;;6097041;23;20326;-75
2023/09/04 12:19:38;;;;;;;1.80;1.70;;;;;;;;;;6096536;23;20077;-73
2023/09/04 12:22:11;;;;;;;1.52;1.42;;;27.70;65.10;;;;;;6096954;23;20334;-76
2023/09/04 12:24:37;;;;;;;3.20;2.03;;;;;;;;;;6097080;23;20037;-75
2023/09/04 12:27:04;;;;;;;2.25;2.05;;;;;;;;;;6096891;23;20014;-71
2023/09/04 12:29:30;;;;;;;2.15;1.70;;;;;;;;;;6106402;23;19994;-71
2023/09/04 12:31:58;;;;;;;1.90;1.70;;;27.90;70.80;;;;;;6106368;23;20002;-71
2023/09/04 12:34:25;;;;;;;2.58;1.80;;;27.90;70.30;;;;;;6096417;23;19995;-72
2023/09/04 12:36:55;;;;;;;4.50;1.75;;;28.00;64.10;;;;;;6106292;23;20002;-72
2023/09/04 12:39:21;;;;;;;1.70;1.60;;;;;;;;;;6106343;23;19998;-71
2023/09/04 12:41:59;;;;;;;2.00;1.55;;;28.10;63.80;;;;;;6097062;23;20073;-72
2023/09/04 12:44:25;;;;;;;2.38;2.17;;;;;;;;;;6096898;23;20002;-72
2023/09/04 12:46:52;;;;;;;1.83;1.70;;;;;;;;;;6096366;23;20465;-73
2023/09/04 12:49:19;;;;;;;2.65;1.60;;;;;;;;;;6097153;23;19999;-74
2023/09/04 12:51:45;;;;;;;2.08;1.90;;;;;;;;;;6094699;23;20426;-73
2023/09/04 12:54:11;;;;;;;1.73;1.63;;;;;;;;;;6096569;23;20326;-74
2023/09/04 12:56:38;;;;;;;1.83;1.73;;;;;;;;;;6096617;23;20334;-74
2023/09/04 12:59:04;;;;;;;2.22;1.73;;;;;;;;;;6096170;23;20094;-76
2023/09/04 13:01:31;;;;;;;2.08;1.98;;;;;;;;;;6095761;23;20013;-73
2023/09/04 13:03:58;;;;;;;3.17;2.10;;;;;;;;;;6096539;23;20061;-72
2023/09/04 13:06:24;;;;;;;2.72;2.00;;;;;;;;;;6095951;23;20010;-71
2023/09/04 13:08:51;;;;;;;2.05;1.65;;;;;;;;;;6096223;23;20018;-71
2023/09/04 13:11:18;;;;;;;1.67;1.58;;;;;;;;;;6095846;23;20003;-71
2023/09/04 13:13:45;;;;;;;2.25;1.92;;;;;;;;;;6096082;23;20025;-72
2023/09/04 13:16:11;;;;;;;1.65;1.55;;;;;;;;;;6105424;23;20426;-72
2023/09/04 13:18:37;;;;;;;6.10;1.83;;;;;;;;;;6105331;23;20001;-73
2023/09/04 13:21:03;;;;;;;1.70;1.60;;;;;;;;;;6105657;23;20010;-71
2023/09/04 13:23:29;;;;;;;1.40;1.30;;;;;;;;;;6105347;23;20077;-72
2023/09/04 13:25:55;;;;;;;1.70;1.60;;;;;;;;;;6105279;23;20074;-72
2023/09/04 13:28:21;;;;;;;1.42;1.33;;;;;;;;;;6105581;23;20418;-72
2023/09/04 13:30:47;;;;;;;1.67;1.58;;;;;;;;;;6105546;23;20009;-72
2023/09/04 13:33:13;;;;;;;3.35;1.88;;;;;;;;;;6105423;23;19998;-72
2023/09/04 13:35:39;;;;;;;1.67;1.58;;;;;;;;;;6105193;23;20367;-73
2023/09/04 13:38:05;;;;;;;1.70;1.60;;;;;;;;;;6095390;23;20649;-72
2023/09/04 13:40:35;;;;;;;2.08;1.90;;;;;;;;;;6095871;23;20002;-73
2023/09/04 13:43:02;;;;;;;1.55;1.45;;;;;;;;;;6095936;23;20007;-72
2023/09/04 13:45:28;;;;;;;1.67;1.58;;;;;;;;;;6095452;23;20081;-72
2023/09/04 13:47:54;;;;;;;1.65;1.50;;;;;;;;;;6095608;23;20029;-72
2023/09/04 13:50:21;;;;;;;1.58;1.48;;;;;;;;;;6095367;23;20025;-71
2023/09/04 13:52:47;;;;;;;1.60;1.50;;;;;;;;;;6095723;23;20378;-72
2023/09/04 13:55:14;;;;;;;1.88;1.65;;;;;;;;;;6095653;23;20328;-70
2023/09/04 13:57:40;;;;;;;1.58;1.40;;;;;;;;;;6105159;23;20002;-71
2023/09/04 14:00:07;;;;;;;2.22;1.52;;;;;;;;;;6095579;23;20070;-71
2023/09/04 14:02:34;;;;;;;1.95;1.67;;;;;;;;;;6095317;23;20039;-71
2023/09/04 14:05:00;;;;;;;1.70;1.50;;;;;;;;;;6095812;23;20065;-71
2023/09/04 14:07:27;;;;;;;1.73;1.48;;;;;;;;;;6070643;23;20018;-72
2023/09/04 14:09:54;;;;;;;1.48;1.38;;;;;;;;;;6095772;23;20305;-72
2023/09/04 14:12:21;;;;;;;1.75;1.65;;;;;;;;;;6095400;23;20467;-72
2023/09/04 14:14:47;;;;;;;2.17;1.90;;;;;;;;;;6095933;23;20010;-72
2023/09/04 14:17:14;;;;;;;1.50;1.40;;;;;;;;;;6095672;23;20002;-72
2023/09/04 14:19:40;;;;;;;1.70;1.60;;;;;;;;;;6095830;23;20010;-74
2023/09/04 14:22:07;;;;;;;1.65;1.55;;;;;;;;;;6095761;23;20326;-74
2023/09/04 14:24:36;;;;;;;1.90;1.73;;;;;;;;;;6095426;23;20006;-74
2023/09/04 14:27:03;;;;;;;1.33;1.23;;;;;;;;;;6095637;23;20014;-73
2023/09/04 14:29:29;;;;;;;2.17;1.80;;;;;;;;;;6095802;23;19999;-73
2023/09/04 14:31:56;;;;;;;1.80;1.52;;;;;;;;;;6095409;23;20073;-73
2023/09/04 14:34:22;;;;;;;2.15;1.40;;;;;;;;;;6095691;23;20002;-73
2023/09/04 14:36:51;;;;;;;1.58;1.48;;;;;;;;;;6095387;23;20320;-71
2023/09/04 14:39:18;;;;;;;1.63;1.52;;;;;;;;;;6095379;23;20390;-71
2023/09/04 14:41:44;;;;;;;3.08;1.50;;;;;;;;;;6104929;23;20028;-71
2023/09/04 14:44:10;;;;;;;1.50;1.40;;;;;;;;;;6104840;23;20364;-70
2023/09/04 14:46:36;;;;;;;2.00;1.30;;;;;;;;;;6095189;23;20014;-71
2023/09/04 14:49:04;;;;;;;1.30;1.20;;;;;;;;;;6095316;23;20010;-71
2023/09/04 14:51:31;;;;;;;2.55;1.55;;;;;;;;;;6104802;23;20005;-70
2023/09/04 14:53:57;;;;;;;1.95;1.85;;;;;;;;;;6104898;23;20022;-72
2023/09/04 14:56:27;;;;;;;1.50;1.40;;;29.10;66.20;;;;;;6094978;23;20010;-69
2023/09/04 14:58:55;;;;;;;1.83;1.73;;;29.10;65.80;;;;;;6094952;23;20493;-72
2023/09/04 15:01:22;;;;;;;1.58;1.33;;;29.10;67.80;;;;;;6095389;23;20029;-71
2023/09/04 15:03:49;;;;;;;1.60;1.50;;;;;;;;;;6094873;23;20011;-72
2023/09/04 15:06:16;;;;;;;1.50;1.40;;;;;;;;;;6095059;23;20366;-70
2023/09/04 15:08:42;;;;;;;2.22;1.83;;;;;;;;;;6104526;23;19994;-72
2023/09/04 15:11:10;;;;;;;1.60;1.48;;;29.00;67.90;;;;;;6104431;23;20020;-72
2023/09/04 15:13:36;;;;;;;3.28;1.35;;;;;;;;;;6104676;23;20069;-76
2023/09/04 15:16:03;;;;;;;1.88;1.60;;;28.80;68.40;;;;;;6104865;23;20333;-75
2023/09/04 15:18:31;;;;;;;1.42;1.33;;;28.70;68.60;;;;;;6104762;23;20026;-76
2023/09/04 15:21:02;;;;;;;1.50;1.40;;;28.60;63.20;;;;;;6104924;23;20026;-76
2023/09/04 15:23:28;;;;;;;1.55;1.45;;;28.60;68.60;;;;;;6094961;23;20032;-75
2023/09/04 15:25:55;;;;;;;4.13;1.42;;;28.50;66.90;;;;;;6069236;23;20006;-75
2023/09/04 15:28:21;;;;;;;1.98;1.77;;;;;;;;;;6095110;23;20070;-75
2023/09/04 15:30:48;;;;;;;2.42;1.52;;;;;;;;;;6095152;23;20025;-75
2023/09/04 15:33:14;;;;;;;2.72;1.45;;;;;;;;;;6094631;23;20002;-75
2023/09/04 15:35:43;;;;;;;1.33;1.23;;;;;;;;;;6094673;23;20383;-77
2023/09/04 15:38:10;;;;;;;1.35;1.25;;;;;;;;;;6094923;23;20430;-78
2023/09/04 15:40:37;;;;;;;2.03;1.73;;;;;;;;;;6094772;23;20002;-75
2023/09/04 15:43:03;;;;;;;1.73;1.42;;;;;;;;;;6095480;23;20017;-74
2023/09/04 15:45:30;;;;;;;1.30;1.20;;;;;;;;;;6095351;23;20085;-74
2023/09/04 15:47:56;;;;;;;1.30;1.23;;;;;;;;;;6095159;23;20003;-75
2023/09/04 15:50:23;;;;;;;1.50;1.40;;;;;;;;;;6094956;23;20003;-75
2023/09/04 15:52:50;;;;;;;1.45;1.35;;;;;;;;;;6104427;23;20005;-74
2023/09/04 15:55:16;;;;;;;1.70;1.50;;;;;;;;;;6094945;23;19998;-76
2023/09/04 15:57:43;;;;;;;1.30;1.20;;;;;;;;;;6095097;23;20295;-75
2023/09/04 16:00:10;;;;;;;1.35;1.25;;;;;;;;;;6094812;23;20446;-74
2023/09/04 16:02:37;;;;;;;1.65;1.55;;;;;;;;;;6094639;23;20018;-75
2023/09/04 16:05:03;;;;;;;2.70;1.58;;;;;;;;;;6094645;23;20010;-77
2023/09/04 16:07:30;;;;;;;1.38;1.27;;;;;;;;;;6095149;23;20013;-75
2023/09/04 16:09:57;;;;;;;3.10;1.67;;;;;;;;;;6094949;23;20046;-74
2023/09/04 16:12:23;;;;;;;2.35;1.35;;;;;;;;;;6094638;23;20006;-74
2023/09/04 16:14:50;;;;;;;1.65;1.55;;;;;;;;;;6095047;23;20003;-74
2023/09/04 16:17:18;;;;;;;1.55;1.30;;;;;;;;;;6095221;23;20077;-73
2023/09/04 16:19:45;;;;;;;1.60;1.42;;;;;;;;;;6095069;23;20025;-74
2023/09/04 16:22:12;;;;;;;1.55;1.45;;;;;;;;;;6096025;23;20007;-74
2023/09/04 16:24:38;;;;;;;1.80;1.40;;;;;;;;;;6096394;23;20461;-74
2023/09/04 16:27:05;;;;;;;1.40;1.25;;;;;;;;;;6096141;23;20071;-73
2023/09/04 16:29:31;;;;;;;1.30;1.20;;;;;;;;;;6096555;23;20013;-73
2023/09/04 16:31:58;;;;;;;2.25;1.35;;;;;;;;;;6096397;23;20041;-72
2023/09/04 16:34:24;;;;;;;1.40;1.30;;;;;;;;;;6096234;23;20449;-72
2023/09/04 16:36:51;;;;;;;1.42;1.33;;;;;;;;;;6096457;23;20434;-77
2023/09/04 16:39:17;;;;;;;1.77;1.67;;;;;;;;;;6097224;23;20090;-77
2023/09/04 16:41:44;;;;;;;1.52;1.40;;;;;;;;;;6096781;23;20078;-77
2023/09/04 16:44:11;;;;;;;1.33;1.20;;;;;;;;;;6096782;23;20041;-77
2023/09/04 16:46:37;;;;;;;1.63;1.27;;;;;;;;;;6106170;23;20398;-76
2023/09/04 16:49:03;;;;;;;1.58;1.48;;;;;;;;;;6106207;23;20002;-77
2023/09/04 16:51:29;;;;;;;1.98;1.40;;;;;;;;;;6106562;23;20025;-76
2023/09/04 16:53:55;;;;;;;3.08;1.60;;;;;;;;;;6096688;23;20002;-76
2023/09/04 16:56:21;;;;;;;1.50;1.40;;;;;;;;;;6106659;23;19999;-76
2023/09/04 16:58:47;;;;;;;1.90;1.45;;;;;;;;;;6106154;23;20434;-76
2023/09/04 17:01:13;;;;;;;2.15;1.60;;;;;;;;;;6105945;23;19998;-77
2023/09/04 17:03:40;;;;;;;1.73;1.52;;;;;;;;;;6096207;23;20045;-78
2023/09/04 17:06:06;;;;;;;1.30;1.20;;;;;;;;;;6096514;23;20434;-78
2023/09/04 17:08:33;;;;;;;2.08;1.40;;;;;;;;;;6096194;23;20006;-77
2023/09/04 17:10:59;;;;;;;1.65;1.40;;;;;;;;;;6105927;23;20150;-76
2023/09/04 17:13:25;;;;;;;2.10;1.50;;;;;;;;;;6095874;23;20077;-73
2023/09/04 17:15:51;;;;;;;1.35;1.25;;;;;;;;;;6106049;23;20003;-73
2023/09/04 17:18:17;;;;;;;1.45;1.35;;;;;;;;;;6105640;23;19995;-72
2023/09/04 17:20:43;;;;;;;2.17;1.50;;;;;;;;;;6105552;23;20006;-73
2023/09/04 17:23:11;;;;;;;1.98;1.65;;;;;;;;;;6105681;23;19998;-73
2023/09/04 17:25:38;;;;;;;1.65;1.55;;;;;;;;;;6095932;23;20057;-73
2023/09/04 17:28:07;;;;;;;2.00;1.55;;;27.30;72.60;;;;;;6095993;23;20280;-73
2023/09/04 17:30:34;;;;;;;1.75;1.65;;;;;;;;;;6105542;23;20022;-73
2023/09/04 17:33:00;;;;;;;1.60;1.48;;;;;;;;;;6105379;23;20026;-77
2023/09/04 17:35:26;;;;;;;2.28;1.60;;;;;;;;;;6105488;23;20353;-77
2023/09/04 17:37:52;;;;;;;1.50;1.38;;;;;;;;;;6105390;23;20006;-77
2023/09/04 17:40:18;;;;;;;1.50;1.38;;;;;;;;;;6105413;23;19998;-77
2023/09/04 17:42:44;;;;;;;2.58;1.17;;;;;;;;;;6105268;23;20338;-78
2023/09/04 17:45:11;;;;;;;1.92;1.15;;;;;;;;;;6095557;23;20509;-78
2023/09/04 17:47:37;;;;;;;1.50;1.40;;;;;;;;;;6095890;23;20086;-73
2023/09/04 17:50:04;;;;;;;2.60;1.50;;;;;;;;;;6096372;23;20081;-75
2023/09/04 17:52:30;;;;;;;1.92;1.60;;;;;;;;;;6095522;23;20101;-74
2023/09/04 17:54:57;;;;;;;1.60;1.42;;;;;;;;;;6097962;23;20002;-73
2023/09/04 17:57:23;;;;;;;1.67;1.50;;;;;;;;;;6095495;23;20450;-75
2023/09/04 17:59:50;;;;;;;1.73;1.33;;;;;;;;;;6095839;23;20458;-72
2023/09/04 18:02:16;;;;;;;1.60;1.50;;;;;;;;;;6095089;23;20018;-72
2023/09/04 18:04:43;;;;;;;1.83;1.65;;;;;;;;;;6095661;23;20382;-72
2023/09/04 18:07:09;;;;;;;2.08;1.60;;;;;;;;;;6095529;23;20021;-71
2023/09/04 18:09:35;;;;;;;1.50;1.40;;;;;;;;;;6095714;23;20501;-72
2023/09/04 18:12:02;;;;;;;2.20;1.60;;;;;;;;;;6095212;23;20013;-72
2023/09/04 18:14:28;;;;;;;1.95;1.30;;;;;;;;;;6095642;23;20378;-71
2023/09/04 18:16:55;;;;;;;1.85;1.70;;;;;;;;;;6095154;23;20006;-72
2023/09/04 18:19:24;;;;;;;1.65;1.33;;;;;;;;;;6095579;23;20328;-72
2023/09/04 18:21:51;;;;;;;1.95;1.50;;;;;;;;;;6095237;23;20509;-71